F00 weather

Jones Field
Bonham, Texas, United States

Public forecast

Using degrees Fahrenheit for public forecast. Weather courtesy of forecast.io.

Closest aviation weather report (METAR) to Jones Field

Closest report is Eaker Field, 22.5 nm (41.7 km) NNW. Retrieved 2020/05/27 05:35 UTC (4 minutes ago):

KDUA 270535Z AUTO 00000KT 10SM OVC120 18/16 A2992 RMK AO2

Closest aviation forecast (TAF) to Jones Field

Closest forecast is Dallas Love Field, 57.0 nm (105.6 km) SW. Retrieved 2020-05-27 00:42 UTC (5 hours ago):

TAF KDAL 262340Z 2700/2724 30008KT P6SM SCT050 BKN120 FM270200 36004KT P6SM BKN160 FM271200 34004KT P6SM BKN100 FM272200 23006KT P6SM VCTS BKN050CB